YCSP weather

Curtin Springs Airport
Northern Territory, Australia

Public forecast

Using degrees Celsius for public forecast. Weather courtesy of forecast.io.

METAR (pilot weather report)

Closest report is Ayers Rock Connellan Airport, 42.8 nm (79.2 km) W. Retrieved 2019/03/25 05:00 UTC (11 minutes ago):

YAYE 250500Z AUTO 12011KT 9999 // SCT060 32/14 Q1013

TAF (pilot weather forecast)

Forecast is more than 12 hours old.

Closest forecast is Alice Springs Airport, 148.4 nm (274.9 km) NE. Retrieved 2019/03/24 00:00 UTC (1 day ago):

TAF YBAS 242325Z 2500/2524 15018G28KT 9999 BKN030 FM251200 15014KT 9999 SCT030 PROB30 TEMPO 2506/2510 VRB25G45KT 1000 TSRA BKN010 SCT020CB